createdAt,value
2022-11-07T00:00:49.781Z,0.00
2022-11-07T00:01:45.745Z,0.00
2022-11-07T00:02:44.750Z,0.00
2022-11-07T00:03:44.675Z,0.00
2022-11-07T00:04:44.642Z,0.00
2022-11-07T00:05:44.640Z,0.00
2022-11-07T00:06:44.640Z,0.00
2022-11-07T00:07:44.626Z,0.00
2022-11-07T00:08:44.611Z,0.00
2022-11-07T00:09:44.591Z,0.00
2022-11-07T00:10:44.584Z,0.00
2022-11-07T00:11:44.572Z,0.00
2022-11-07T00:12:44.632Z,0.00
2022-11-07T00:13:44.573Z,0.00
2022-11-07T00:14:44.534Z,0.00
2022-11-07T00:15:44.535Z,0.00
2022-11-07T00:16:44.512Z,0.00
2022-11-07T00:17:44.514Z,0.00
2022-11-07T00:18:44.504Z,0.00
2022-11-07T00:19:44.498Z,0.00
2022-11-07T00:20:44.540Z,0.00
2022-11-07T00:21:44.467Z,0.00
2022-11-07T00:22:44.455Z,0.00
2022-11-07T00:23:44.458Z,0.00
2022-11-07T00:24:44.427Z,0.00
2022-11-07T00:25:44.424Z,0.00
2022-11-07T00:26:44.406Z,0.00
2022-11-07T00:27:44.469Z,0.00
2022-11-07T00:28:44.415Z,0.00
2022-11-07T00:29:44.384Z,0.00
2022-11-07T00:30:44.546Z,0.00
2022-11-07T00:31:44.366Z,0.00
2022-11-07T00:32:44.339Z,0.00
2022-11-07T00:33:44.345Z,0.00
2022-11-07T00:34:44.340Z,0.00
2022-11-07T00:35:44.327Z,0.00
2022-11-07T00:36:44.357Z,0.00
2022-11-07T00:37:44.289Z,0.00
2022-11-07T00:38:44.976Z,0.00
2022-11-07T00:39:44.278Z,0.00
2022-11-07T00:40:44.259Z,0.00
2022-11-07T00:41:44.249Z,0.00
2022-11-07T00:42:44.249Z,0.00
2022-11-07T00:43:44.238Z,0.00
2022-11-07T00:44:44.209Z,0.00
2022-11-07T00:45:44.208Z,0.00
2022-11-07T00:46:44.259Z,0.00
2022-11-07T00:47:44.219Z,0.00
2022-11-07T00:48:44.169Z,0.00
2022-11-07T00:49:44.159Z,0.00
2022-11-07T00:50:44.150Z,0.00
2022-11-07T00:51:44.144Z,0.00
2022-11-07T00:52:44.151Z,0.00
2022-11-07T00:53:44.131Z,0.00
2022-11-07T00:54:44.105Z,0.00
2022-11-07T00:55:44.101Z,0.00
2022-11-07T00:56:44.080Z,0.00
2022-11-07T00:57:44.089Z,0.00
2022-11-07T00:58:44.102Z,0.00
2022-11-07T00:59:44.061Z,0.00
2022-11-07T01:00:44.054Z,0.00
2022-11-07T01:01:44.175Z,0.00
2022-11-07T01:02:44.149Z,0.00
2022-11-07T01:03:44.015Z,0.00
2022-11-07T01:04:43.995Z,0.00
2022-11-07T01:05:43.994Z,0.00
2022-11-07T01:06:43.975Z,0.00
2022-11-07T01:07:43.986Z,0.00
2022-11-07T01:08:43.957Z,0.00
2022-11-07T01:09:43.944Z,0.00
2022-11-07T01:10:43.933Z,0.00
2022-11-07T01:11:43.934Z,0.00
2022-11-07T01:12:43.935Z,0.00
2022-11-07T01:13:43.907Z,0.00
2022-11-07T01:14:43.923Z,0.00
2022-11-07T01:15:43.888Z,0.00
2022-11-07T01:16:43.875Z,0.00
2022-11-07T01:17:43.876Z,0.00
2022-11-07T01:18:43.848Z,0.00
2022-11-07T01:19:43.848Z,0.00
2022-11-07T01:20:43.826Z,0.00
2022-11-07T01:21:43.819Z,0.00
2022-11-07T01:22:43.816Z,0.00
2022-11-07T01:23:43.808Z,0.00
2022-11-07T01:24:43.787Z,0.00
2022-11-07T01:25:43.776Z,0.00
2022-11-07T01:26:43.763Z,0.00
2022-11-07T01:27:43.768Z,0.00
2022-11-07T01:28:43.740Z,0.00
2022-11-07T01:29:43.738Z,0.00
2022-11-07T01:30:43.725Z,0.00
2022-11-07T01:31:43.717Z,0.00
2022-11-07T01:32:43.716Z,0.00
2022-11-07T01:33:43.697Z,0.00
2022-11-07T01:34:43.688Z,0.00
2022-11-07T01:35:43.677Z,0.00
2022-11-07T01:36:43.658Z,0.00
2022-11-07T01:37:43.667Z,0.00
2022-11-07T01:38:43.653Z,0.00
2022-11-07T01:39:43.619Z,0.00
2022-11-07T01:40:43.626Z,0.00
2022-11-07T01:41:43.607Z,0.00
2022-11-07T01:42:43.640Z,0.00
2022-11-07T01:43:43.582Z,0.00
2022-11-07T01:44:43.582Z,0.00
2022-11-07T01:45:43.577Z,0.00
2022-11-07T01:46:43.562Z,0.00
2022-11-07T01:47:43.560Z,0.00
2022-11-07T01:48:43.544Z,0.00
2022-11-07T01:49:43.520Z,0.00
2022-11-07T01:50:43.510Z,0.00
2022-11-07T01:51:43.492Z,0.00
2022-11-07T01:52:43.501Z,0.00
2022-11-07T01:53:43.471Z,0.00
2022-11-07T01:54:43.468Z,0.00
2022-11-07T01:55:43.458Z,0.00
2022-11-07T01:56:43.441Z,0.00
2022-11-07T01:57:43.439Z,0.00
2022-11-07T01:58:43.431Z,0.00
2022-11-07T01:59:43.413Z,0.00
2022-11-07T02:00:43.402Z,0.00
2022-11-07T02:01:43.521Z,0.00
2022-11-07T02:02:43.559Z,0.00
2022-11-07T02:03:43.363Z,0.00
2022-11-07T02:04:43.371Z,0.00
2022-11-07T02:05:43.349Z,0.00
2022-11-07T02:06:43.355Z,0.00
2022-11-07T02:07:43.342Z,0.00
2022-11-07T02:08:43.329Z,0.00
2022-11-07T02:09:43.312Z,0.00
2022-11-07T02:10:43.296Z,0.00
2022-11-07T02:11:43.293Z,0.00
2022-11-07T02:12:43.284Z,0.00
2022-11-07T02:13:43.264Z,0.00
2022-11-07T02:14:43.253Z,0.00
2022-11-07T02:15:43.233Z,0.00
2022-11-07T02:16:43.234Z,0.00
2022-11-07T02:17:43.236Z,0.00
2022-11-07T02:18:43.204Z,0.00
2022-11-07T02:19:43.195Z,0.00
2022-11-07T02:20:43.186Z,0.00
2022-11-07T02:21:43.165Z,0.00
2022-11-07T02:22:43.189Z,0.00
2022-11-07T02:23:43.154Z,0.00
2022-11-07T02:24:43.155Z,0.00
2022-11-07T02:25:43.135Z,0.00
2022-11-07T02:26:43.127Z,0.00
2022-11-07T02:27:43.126Z,0.00
2022-11-07T02:28:43.106Z,0.00
2022-11-07T02:29:43.086Z,0.00
2022-11-07T02:30:43.083Z,0.00
2022-11-07T02:31:43.068Z,0.00
2022-11-07T02:32:43.075Z,0.00
2022-11-07T02:33:43.076Z,0.00
2022-11-07T02:34:43.041Z,0.00
2022-11-07T02:35:43.070Z,0.00
2022-11-07T02:36:43.015Z,0.00
2022-11-07T02:37:43.007Z,0.00
2022-11-07T02:38:42.998Z,0.00
2022-11-07T02:39:42.981Z,0.00
2022-11-07T02:40:42.976Z,0.00
2022-11-07T02:41:42.957Z,0.00
2022-11-07T02:42:43.021Z,0.00
2022-11-07T02:43:42.938Z,0.00
2022-11-07T02:44:42.928Z,0.00
2022-11-07T02:45:42.921Z,0.00
2022-11-07T02:46:42.907Z,0.00
2022-11-07T02:47:42.910Z,0.00
2022-11-07T02:48:42.878Z,0.00
2022-11-07T02:49:42.870Z,0.00
2022-11-07T02:50:42.862Z,0.00
2022-11-07T02:51:42.850Z,0.00
2022-11-07T02:52:42.853Z,0.00
2022-11-07T02:53:42.831Z,0.00
2022-11-07T02:54:42.812Z,0.00
2022-11-07T02:55:42.810Z,0.00
2022-11-07T02:56:42.799Z,0.00
2022-11-07T02:57:42.799Z,0.00
2022-11-07T02:58:42.781Z,0.00
2022-11-07T02:59:42.782Z,0.00
2022-11-07T03:00:42.751Z,0.00
2022-11-07T03:01:42.813Z,0.00
2022-11-07T03:02:42.838Z,0.00
2022-11-07T03:03:42.722Z,0.00
2022-11-07T03:04:46.638Z,0.00
2022-11-07T03:05:43.702Z,0.00
2022-11-07T03:06:42.682Z,0.00
2022-11-07T03:07:42.691Z,0.00
2022-11-07T03:08:42.664Z,0.00
2022-11-07T03:09:42.662Z,0.00
2022-11-07T03:10:42.652Z,0.00
2022-11-07T03:11:42.648Z,0.00
2022-11-07T03:12:42.632Z,0.00
2022-11-07T03:13:42.615Z,0.00
2022-11-07T03:14:42.628Z,0.00
2022-11-07T03:15:42.594Z,0.00
2022-11-07T03:16:42.579Z,0.00
2022-11-07T03:17:42.595Z,0.00
2022-11-07T03:18:42.652Z,0.00
2022-11-07T03:19:42.593Z,0.00
2022-11-07T03:20:42.545Z,0.00
2022-11-07T03:21:42.526Z,0.00
2022-11-07T03:22:42.516Z,0.00
2022-11-07T03:23:42.533Z,0.00
2022-11-07T03:24:42.492Z,0.00
2022-11-07T03:25:42.484Z,0.00
2022-11-07T03:26:42.465Z,0.00
2022-11-07T03:27:42.487Z,0.00
2022-11-07T03:28:42.448Z,0.00
2022-11-07T03:29:42.445Z,0.00
2022-11-07T03:30:42.425Z,0.00
2022-11-07T03:31:42.429Z,0.00
2022-11-07T03:32:42.418Z,0.00
2022-11-07T03:33:42.416Z,0.00
2022-11-07T03:34:42.385Z,0.00
2022-11-07T03:35:42.377Z,0.00
2022-11-07T03:36:42.358Z,0.00
2022-11-07T03:37:42.369Z,0.00
2022-11-07T03:38:42.348Z,0.00
2022-11-07T03:39:42.339Z,0.00
2022-11-07T03:40:42.331Z,0.00
2022-11-07T03:41:42.408Z,0.00
2022-11-07T03:42:42.307Z,0.00
2022-11-07T03:43:42.290Z,0.00
2022-11-07T03:44:42.278Z,0.00
2022-11-07T03:45:42.269Z,0.00
2022-11-07T03:46:42.259Z,0.00
2022-11-07T03:47:42.257Z,0.00
2022-11-07T03:48:42.239Z,0.00
2022-11-07T03:49:42.232Z,0.00
2022-11-07T03:50:42.209Z,0.00
2022-11-07T03:51:42.212Z,0.00
2022-11-07T03:52:42.209Z,0.00
2022-11-07T03:53:42.191Z,0.00
2022-11-07T03:54:42.168Z,0.00
2022-11-07T03:55:42.161Z,0.00
2022-11-07T03:56:42.150Z,0.00
2022-11-07T03:57:42.140Z,0.00
2022-11-07T03:58:42.161Z,0.00
2022-11-07T03:59:42.131Z,0.00
2022-11-07T04:00:42.102Z,0.00
2022-11-07T04:01:42.198Z,0.00
2022-11-07T04:02:42.284Z,0.00
2022-11-07T04:03:42.112Z,0.00
2022-11-07T04:04:42.073Z,0.00
2022-11-07T04:05:42.064Z,0.00
2022-11-07T04:06:42.044Z,0.00
2022-11-07T04:07:42.043Z,0.00
2022-11-07T04:08:42.053Z,0.00
2022-11-07T04:09:42.003Z,0.00
2022-11-07T04:10:42.006Z,0.00
2022-11-07T04:11:41.983Z,0.00
2022-11-07T04:12:41.991Z,0.00
2022-11-07T04:13:41.963Z,0.00
2022-11-07T04:14:41.963Z,0.00
2022-11-07T04:15:41.956Z,0.00
2022-11-07T04:16:41.936Z,0.00
2022-11-07T04:17:41.933Z,0.00
2022-11-07T04:18:41.917Z,0.00
2022-11-07T04:19:41.906Z,0.00
2022-11-07T04:20:41.902Z,0.00
2022-11-07T04:21:41.883Z,0.00
2022-11-07T04:22:41.885Z,0.00
2022-11-07T04:23:41.903Z,0.00
2022-11-07T04:24:45.706Z,0.00
2022-11-07T04:25:41.848Z,0.00
2022-11-07T04:26:41.834Z,0.00
2022-11-07T04:27:41.875Z,0.00
2022-11-07T04:28:41.819Z,0.00
2022-11-07T04:29:41.796Z,0.00
2022-11-07T04:30:41.785Z,0.00
2022-11-07T04:31:41.794Z,0.00
2022-11-07T04:32:41.767Z,0.00
2022-11-07T04:33:41.757Z,0.00
2022-11-07T04:34:41.749Z,0.00
2022-11-07T04:35:41.729Z,0.00
2022-11-07T04:36:41.715Z,0.00
2022-11-07T04:37:41.708Z,0.00
2022-11-07T04:38:41.718Z,0.00
2022-11-07T04:39:41.687Z,0.00
2022-11-07T04:40:41.676Z,0.00
2022-11-07T04:41:41.672Z,0.00
2022-11-07T04:42:41.667Z,0.00
2022-11-07T04:43:41.649Z,0.00
2022-11-07T04:44:41.634Z,0.00
2022-11-07T04:45:41.630Z,0.00
2022-11-07T04:46:41.621Z,0.00
2022-11-07T04:47:41.716Z,0.00
2022-11-07T04:48:41.589Z,0.00
2022-11-07T04:49:41.600Z,0.00
2022-11-07T04:50:41.560Z,0.00
2022-11-07T04:51:41.562Z,0.00
2022-11-07T04:52:41.560Z,0.00
2022-11-07T04:53:41.542Z,0.00
2022-11-07T04:54:41.520Z,0.00
2022-11-07T04:55:41.580Z,0.00
2022-11-07T04:56:41.522Z,0.00
2022-11-07T04:57:41.503Z,0.00
2022-11-07T04:58:41.500Z,0.00
2022-11-07T04:59:41.480Z,0.00
2022-11-07T05:00:41.480Z,0.00
2022-11-07T05:01:41.513Z,0.00
2022-11-07T05:02:41.528Z,0.00
2022-11-07T05:03:42.318Z,0.00
2022-11-07T05:04:41.411Z,0.00
2022-11-07T05:05:41.454Z,0.00
2022-11-07T05:06:41.414Z,0.00
2022-11-07T05:07:41.405Z,0.00
2022-11-07T05:08:41.378Z,0.00
2022-11-07T05:09:41.362Z,0.00
2022-11-07T05:10:41.352Z,0.00
2022-11-07T05:11:41.344Z,0.00
2022-11-07T05:12:41.348Z,0.00
2022-11-07T05:13:41.424Z,0.00
2022-11-07T05:14:41.302Z,0.00
2022-11-07T05:15:41.293Z,0.00
2022-11-07T05:16:41.284Z,0.00
2022-11-07T05:17:41.294Z,0.00
2022-11-07T05:18:41.264Z,0.00
2022-11-07T05:19:41.274Z,0.00
2022-11-07T05:20:41.243Z,0.00
2022-11-07T05:21:41.233Z,0.00
2022-11-07T05:22:41.224Z,0.00
2022-11-07T05:23:41.205Z,0.00
2022-11-07T05:24:41.195Z,0.00
2022-11-07T05:25:41.185Z,0.00
2022-11-07T05:26:41.181Z,0.00
2022-11-07T05:27:41.186Z,0.00
2022-11-07T05:28:41.169Z,0.00
2022-11-07T05:29:41.151Z,0.00
2022-11-07T05:30:41.129Z,0.00
2022-11-07T05:31:41.120Z,0.00
2022-11-07T05:32:41.125Z,0.00
2022-11-07T05:33:41.097Z,0.00
2022-11-07T05:34:41.098Z,0.00
2022-11-07T05:35:41.087Z,0.00
2022-11-07T05:36:41.075Z,0.00
2022-11-07T05:37:41.093Z,0.00
2022-11-07T05:38:41.068Z,0.00
2022-11-07T05:39:41.035Z,0.00
2022-11-07T05:40:41.028Z,0.00
2022-11-07T05:41:41.009Z,0.00
2022-11-07T05:42:41.009Z,0.00
2022-11-07T05:43:40.989Z,0.00
2022-11-07T05:44:40.980Z,0.00
2022-11-07T05:45:40.969Z,0.00
2022-11-07T05:46:40.956Z,0.00
2022-11-07T05:47:41.031Z,0.00
2022-11-07T05:48:40.930Z,0.00
2022-11-07T05:49:40.932Z,0.00
2022-11-07T05:50:40.910Z,0.00
2022-11-07T05:51:40.899Z,0.00
2022-11-07T05:52:40.934Z,0.00
2022-11-07T05:53:40.883Z,0.00
2022-11-07T05:54:40.859Z,0.00
2022-11-07T05:55:40.859Z,0.00
2022-11-07T05:56:40.859Z,0.00
2022-11-07T05:57:40.860Z,0.00
2022-11-07T05:58:40.830Z,4.00
2022-11-07T05:59:40.820Z,4.00
2022-11-07T06:00:40.807Z,0.00
2022-11-07T06:01:50.960Z,4.00
2022-11-07T06:02:40.899Z,8.00
2022-11-07T06:03:40.772Z,4.00
2022-11-07T06:04:40.761Z,8.00
2022-11-07T06:05:40.756Z,8.00
2022-11-07T06:06:40.801Z,8.00
2022-11-07T06:07:40.746Z,8.00
2022-11-07T06:08:40.715Z,12.00
2022-11-07T06:09:40.705Z,12.00
2022-11-07T06:10:40.701Z,16.00
2022-11-07T06:11:40.693Z,20.00
2022-11-07T06:12:40.684Z,20.00
2022-11-07T06:13:40.673Z,24.00
2022-11-07T06:14:40.655Z,28.00
2022-11-07T06:15:40.642Z,32.00
2022-11-07T06:16:40.625Z,40.00
2022-11-07T06:17:40.658Z,44.00
2022-11-07T06:18:41.901Z,48.00
2022-11-07T06:19:40.603Z,56.00
2022-11-07T06:20:40.604Z,60.00
2022-11-07T06:21:40.577Z,68.00
2022-11-07T06:22:40.588Z,72.00
2022-11-07T06:23:40.554Z,76.00
2022-11-07T06:24:40.564Z,80.00
2022-11-07T06:25:40.548Z,80.00
2022-11-07T06:26:40.526Z,92.00
2022-11-07T06:27:40.526Z,104.00
2022-11-07T06:28:40.505Z,116.00
2022-11-07T06:29:40.496Z,132.00
2022-11-07T06:30:40.477Z,156.00
2022-11-07T06:31:40.488Z,176.00
2022-11-07T06:32:44.386Z,196.00
2022-11-07T06:33:40.447Z,212.00
2022-11-07T06:34:40.436Z,224.00
2022-11-07T06:35:40.428Z,244.00
2022-11-07T06:36:40.417Z,260.00
2022-11-07T06:37:40.439Z,280.00
2022-11-07T06:38:40.392Z,308.00
2022-11-07T06:39:40.392Z,356.00
2022-11-07T06:40:40.369Z,400.00
2022-11-07T06:41:40.369Z,440.00
2022-11-07T06:42:40.356Z,480.00
2022-11-07T06:43:40.422Z,532.00
2022-11-07T06:44:40.330Z,596.00
2022-11-07T06:45:40.322Z,672.00
2022-11-07T06:46:40.309Z,744.00
2022-11-07T06:47:40.489Z,796.00
2022-11-07T06:48:40.286Z,852.00
2022-11-07T06:49:40.294Z,904.00
2022-11-07T06:50:40.260Z,944.00
2022-11-07T06:51:45.304Z,984.00
2022-11-07T06:52:41.523Z,1016.00
2022-11-07T06:53:40.233Z,1044.00
2022-11-07T06:54:40.219Z,1084.00
2022-11-07T06:55:40.230Z,1132.00
2022-11-07T06:56:40.205Z,1204.00
2022-11-07T06:57:40.201Z,1304.00
2022-11-07T06:58:40.173Z,1404.00
2022-11-07T06:59:40.171Z,1400.00
2022-11-07T07:00:40.224Z,1384.00
2022-11-07T07:01:40.296Z,1380.00
2022-11-07T07:03:08.357Z,1360.00
2022-11-07T07:03:41.121Z,1316.00
2022-11-07T07:04:40.123Z,1244.00
2022-11-07T07:05:40.131Z,1168.00
2022-11-07T07:06:40.214Z,1164.00
2022-11-07T07:07:40.114Z,1212.00
2022-11-07T07:08:40.072Z,1248.00
2022-11-07T07:09:40.054Z,1340.00
2022-11-07T07:10:40.107Z,1396.00
2022-11-07T07:11:40.043Z,1400.00
2022-11-07T07:12:40.045Z,1428.00
2022-11-07T07:13:40.018Z,1476.00
2022-11-07T07:14:40.015Z,1576.00
2022-11-07T07:15:50.293Z,1772.00
2022-11-07T07:16:40.978Z,1800.00
2022-11-07T07:17:39.995Z,1764.00
2022-11-07T07:18:39.955Z,1776.00
2022-11-07T07:19:39.955Z,1788.00
2022-11-07T07:20:39.946Z,1692.00
2022-11-07T07:21:39.926Z,1672.00
2022-11-07T07:22:39.944Z,1696.00
2022-11-07T07:23:39.934Z,1736.00
2022-11-07T07:24:40.019Z,1680.00
2022-11-07T07:25:39.887Z,1472.00
2022-11-07T07:26:39.888Z,1464.00
2022-11-07T07:27:39.880Z,1716.00
2022-11-07T07:28:39.929Z,2152.00
2022-11-07T07:29:39.838Z,2576.00
2022-11-07T07:30:39.827Z,2812.00
2022-11-07T07:31:39.828Z,3040.00
2022-11-07T07:32:39.818Z,3192.00
2022-11-07T07:33:39.799Z,3196.00
2022-11-07T07:34:39.798Z,3420.00
2022-11-07T07:35:39.770Z,3852.00
2022-11-07T07:36:39.773Z,4200.00
2022-11-07T07:37:39.769Z,4628.00
2022-11-07T07:38:39.804Z,5148.00
2022-11-07T07:39:40.707Z,5712.00
2022-11-07T07:40:39.729Z,5872.00
2022-11-07T07:41:40.436Z,6048.00
2022-11-07T07:42:39.712Z,6248.00
2022-11-07T07:43:39.690Z,6552.00
2022-11-07T07:44:39.682Z,7212.00
2022-11-07T07:45:39.672Z,7420.00
2022-11-07T07:46:39.749Z,6900.00
2022-11-07T07:47:39.662Z,6092.00
2022-11-07T07:48:39.640Z,5120.00
2022-11-07T07:49:39.622Z,4380.00
2022-11-07T07:50:39.622Z,3804.00
2022-11-07T07:51:39.609Z,2996.00
2022-11-07T07:52:39.616Z,2444.00
2022-11-07T07:53:39.591Z,2388.00
2022-11-07T07:54:39.649Z,2548.00
2022-11-07T07:55:39.554Z,2460.00
2022-11-07T07:56:39.627Z,2376.00
2022-11-07T07:57:39.554Z,2516.00
2022-11-07T07:58:39.536Z,2836.00
2022-11-07T07:59:39.523Z,3024.00
2022-11-07T08:00:39.556Z,2968.00
2022-11-07T08:01:39.710Z,2836.00
2022-11-07T08:02:39.594Z,2832.00
2022-11-07T08:04:00.095Z,3164.00
2022-11-07T08:04:40.486Z,3728.00
2022-11-07T08:05:39.479Z,4076.00
2022-11-07T08:06:39.446Z,4508.00
2022-11-07T08:07:40.307Z,5136.00
2022-11-07T08:08:39.435Z,5764.00
2022-11-07T08:09:39.429Z,6220.00
2022-11-07T08:10:42.469Z,6564.00
2022-11-07T08:11:39.682Z,6608.00
2022-11-07T08:12:39.501Z,6112.00
2022-11-07T08:13:39.384Z,5320.00
2022-11-07T08:14:39.369Z,4792.00
2022-11-07T08:15:39.349Z,4584.00
2022-11-07T08:16:39.340Z,4488.00
2022-11-07T08:17:39.329Z,4416.00
2022-11-07T08:18:39.333Z,4524.00
2022-11-07T08:19:39.313Z,4884.00
2022-11-07T08:20:39.332Z,5276.00
2022-11-07T08:21:39.394Z,5460.00
2022-11-07T08:22:39.292Z,5400.00
2022-11-07T08:23:39.273Z,5404.00
2022-11-07T08:24:39.261Z,5552.00
2022-11-07T08:25:39.252Z,5660.00
2022-11-07T08:26:39.257Z,5588.00
2022-11-07T08:27:39.241Z,5364.00
2022-11-07T08:28:39.211Z,5216.00
2022-11-07T08:29:39.206Z,5408.00
2022-11-07T08:30:39.182Z,6064.00
2022-11-07T08:31:39.193Z,7120.00
2022-11-07T08:32:39.191Z,8324.00
2022-11-07T08:33:39.245Z,9440.00
2022-11-07T08:34:39.152Z,10408.00
2022-11-07T08:35:42.452Z,11216.00
2022-11-07T08:36:39.114Z,12064.00
2022-11-07T08:37:39.124Z,12300.00
2022-11-07T08:38:39.107Z,11544.00
2022-11-07T08:39:39.093Z,10672.00
2022-11-07T08:40:39.075Z,10056.00
2022-11-07T08:41:39.074Z,9464.00
2022-11-07T08:42:39.065Z,9116.00
2022-11-07T08:43:39.055Z,8636.00
2022-11-07T08:44:39.036Z,8220.00
2022-11-07T08:45:39.081Z,7916.00
2022-11-07T08:46:39.015Z,7756.00
2022-11-07T08:47:39.017Z,7736.00
2022-11-07T08:48:38.987Z,7776.00
2022-11-07T08:49:38.985Z,8032.00
2022-11-07T08:50:38.968Z,8332.00
2022-11-07T08:51:38.957Z,8200.00
2022-11-07T08:52:38.968Z,7584.00
2022-11-07T08:53:38.947Z,6736.00
2022-11-07T08:54:38.928Z,6116.00
2022-11-07T08:55:38.917Z,5896.00
2022-11-07T08:56:38.910Z,5996.00
2022-11-07T08:57:38.911Z,6328.00
2022-11-07T08:58:38.888Z,6552.00
2022-11-07T08:59:38.869Z,6440.00
2022-11-07T09:00:38.880Z,6276.00
2022-11-07T09:01:55.985Z,6372.00
2022-11-07T09:03:51.694Z,8124.00
2022-11-07T09:04:39.879Z,9088.00
2022-11-07T09:05:38.811Z,9420.00
2022-11-07T09:06:38.801Z,10780.00
2022-11-07T09:07:38.793Z,12832.00
2022-11-07T09:08:38.781Z,13852.00
2022-11-07T09:09:38.771Z,14460.00
2022-11-07T09:10:38.753Z,15208.00
2022-11-07T09:11:38.775Z,15896.00
2022-11-07T09:12:38.724Z,16928.00
2022-11-07T09:13:38.725Z,16380.00
2022-11-07T09:14:38.726Z,15568.00
2022-11-07T09:15:38.703Z,16340.00
2022-11-07T09:16:43.326Z,17792.00
2022-11-07T09:17:38.685Z,19040.00
2022-11-07T09:18:38.673Z,20064.00
2022-11-07T09:19:38.662Z,20224.00
2022-11-07T09:20:38.644Z,18880.00
2022-11-07T09:21:38.655Z,17568.00
2022-11-07T09:22:38.624Z,17120.00
2022-11-07T09:23:38.617Z,18048.00
2022-11-07T09:24:38.676Z,17696.00
2022-11-07T09:25:38.631Z,16864.00
2022-11-07T09:26:38.640Z,16108.00
2022-11-07T09:27:38.567Z,14972.00
2022-11-07T09:28:38.546Z,14148.00
2022-11-07T09:29:38.575Z,13372.00
2022-11-07T09:30:38.527Z,12652.00
2022-11-07T09:31:38.540Z,12568.00
2022-11-07T09:32:44.855Z,12664.00
2022-11-07T09:33:39.506Z,13140.00
2022-11-07T09:34:38.487Z,14120.00
2022-11-07T09:35:38.488Z,14796.00
2022-11-07T09:36:38.494Z,15224.00
2022-11-07T09:37:38.461Z,15648.00
2022-11-07T09:38:38.450Z,16136.00
2022-11-07T09:39:38.436Z,16832.00
2022-11-07T09:40:38.421Z,17984.00
2022-11-07T09:41:38.433Z,19424.00
2022-11-07T09:42:38.453Z,20032.00
2022-11-07T09:43:38.392Z,20544.00
2022-11-07T09:44:38.384Z,20992.00
2022-11-07T09:45:38.371Z,21408.00
2022-11-07T09:46:38.372Z,21312.00
2022-11-07T09:47:38.355Z,21056.00
2022-11-07T09:48:38.343Z,21120.00
2022-11-07T09:49:38.350Z,21536.00
2022-11-07T09:50:38.315Z,21952.00
2022-11-07T09:51:38.313Z,22944.00
2022-11-07T09:52:38.773Z,24096.00
2022-11-07T09:53:38.293Z,24448.00
2022-11-07T09:54:38.334Z,24288.00
2022-11-07T09:55:38.401Z,24192.00
2022-11-07T09:56:38.269Z,24256.00
2022-11-07T09:57:38.243Z,25056.00
2022-11-07T09:58:38.236Z,26112.00
2022-11-07T09:59:38.227Z,27008.00
2022-11-07T10:00:38.243Z,28032.00
2022-11-07T10:01:38.341Z,30144.00
2022-11-07T10:02:38.186Z,36512.00
2022-11-07T10:03:38.179Z,45728.00
2022-11-07T10:04:38.168Z,50880.00
2022-11-07T10:05:38.163Z,61088.00
2022-11-07T10:06:38.351Z,38272.00
2022-11-07T10:07:38.151Z,28320.00
2022-11-07T10:08:38.131Z,29216.00
2022-11-07T10:09:38.129Z,31008.00
2022-11-07T10:10:38.110Z,21344.00
2022-11-07T10:11:38.181Z,19872.00
2022-11-07T10:12:43.196Z,17664.00
2022-11-07T10:13:39.069Z,17248.00
2022-11-07T10:14:38.061Z,18176.00
2022-11-07T10:15:38.053Z,19072.00
2022-11-07T10:16:38.042Z,18080.00
2022-11-07T10:17:38.032Z,18848.00
2022-11-07T10:18:38.056Z,18208.00
2022-11-07T10:19:38.062Z,18688.00
2022-11-07T10:20:38.005Z,20896.00
2022-11-07T10:21:39.179Z,24160.00
2022-11-07T10:22:37.975Z,30656.00
2022-11-07T10:23:37.965Z,37248.00
2022-11-07T10:24:37.944Z,66752.00
2022-11-07T10:25:37.946Z,77600.00
2022-11-07T10:26:37.957Z,83552.00
2022-11-07T10:27:37.935Z,42816.00
2022-11-07T10:28:37.906Z,86368.00
2022-11-07T10:29:43.259Z,84256.00
2022-11-07T10:30:38.886Z,74176.00
2022-11-07T10:31:37.881Z,75296.00
2022-11-07T10:32:37.866Z,81312.00
2022-11-07T10:33:37.898Z,69696.00
2022-11-07T10:34:37.850Z,74272.00
2022-11-07T10:35:37.828Z,53440.00
2022-11-07T10:36:37.820Z,33408.00
2022-11-07T10:37:37.980Z,29952.00
2022-11-07T10:38:37.799Z,36096.00
2022-11-07T10:39:37.813Z,35872.00
2022-11-07T10:40:58.460Z,94176.00
2022-11-07T10:41:37.771Z,90240.00
2022-11-07T10:42:37.762Z,71776.00
2022-11-07T10:43:37.744Z,87392.00
2022-11-07T10:44:37.812Z,82080.00
2022-11-07T10:45:37.722Z,84864.00
2022-11-07T10:46:37.715Z,53920.00
2022-11-07T10:47:37.795Z,42368.00
2022-11-07T10:48:37.693Z,44544.00
2022-11-07T10:49:37.684Z,53600.00
2022-11-07T10:50:37.666Z,38176.00
2022-11-07T10:51:37.695Z,38432.00
2022-11-07T10:52:37.658Z,39584.00
2022-11-07T10:53:37.647Z,32608.00
2022-11-07T10:54:37.627Z,33728.00
2022-11-07T10:55:37.626Z,54720.00
2022-11-07T10:56:37.597Z,55168.00
2022-11-07T10:57:37.613Z,96352.00
2022-11-07T10:58:37.581Z,92704.00
2022-11-07T10:59:37.589Z,99392.00
2022-11-07T11:00:37.613Z,51968.00
2022-11-07T11:01:37.699Z,62720.00
2022-11-07T11:02:37.551Z,82240.00
2022-11-07T11:03:44.335Z,45280.00
2022-11-07T11:04:38.522Z,72512.00
2022-11-07T11:05:37.542Z,107040.00
2022-11-07T11:06:37.492Z,106880.00
2022-11-07T11:07:37.513Z,102208.00
2022-11-07T11:08:37.482Z,100864.00
2022-11-07T11:09:37.464Z,103328.00
2022-11-07T11:10:37.453Z,102496.00
2022-11-07T11:11:37.455Z,102496.00
2022-11-07T11:12:37.442Z,103136.00
2022-11-07T11:13:37.426Z,99744.00
2022-11-07T11:14:37.416Z,94176.00
2022-11-07T11:15:37.405Z,33856.00
2022-11-07T11:16:37.402Z,86496.00
2022-11-07T11:17:37.398Z,83424.00
2022-11-07T11:18:37.373Z,87808.00
2022-11-07T11:19:37.399Z,86112.00
2022-11-07T11:20:37.351Z,87776.00
2022-11-07T11:21:37.347Z,81600.00
2022-11-07T11:22:37.349Z,82784.00
2022-11-07T11:23:37.332Z,83488.00
2022-11-07T11:24:37.302Z,84640.00
2022-11-07T11:25:37.309Z,78976.00
2022-11-07T11:26:37.291Z,77888.00
2022-11-07T11:27:37.315Z,77216.00
2022-11-07T11:28:37.284Z,91456.00
2022-11-07T11:29:39.682Z,90432.00
2022-11-07T11:30:40.194Z,38752.00
2022-11-07T11:31:37.249Z,91072.00
2022-11-07T11:32:37.257Z,96192.00
2022-11-07T11:33:37.239Z,90304.00
2022-11-07T11:34:38.410Z,83424.00
2022-11-07T11:35:41.666Z,84288.00
2022-11-07T11:36:38.238Z,93440.00
2022-11-07T11:37:37.228Z,90048.00
2022-11-07T11:38:37.169Z,64576.00
2022-11-07T11:39:37.159Z,81760.00
2022-11-07T11:40:37.151Z,41888.00
2022-11-07T11:41:37.138Z,40832.00
2022-11-07T11:42:37.167Z,70400.00
2022-11-07T11:43:37.110Z,32544.00
2022-11-07T11:44:37.100Z,79520.00
2022-11-07T11:45:37.090Z,24608.00
2022-11-07T11:46:37.170Z,27392.00
2022-11-07T11:47:37.089Z,70368.00
2022-11-07T11:48:40.932Z,22528.00
2022-11-07T11:49:37.062Z,23264.00
2022-11-07T11:50:37.034Z,36256.00
2022-11-07T11:51:37.143Z,29376.00
2022-11-07T11:52:37.262Z,23904.00
2022-11-07T11:53:37.333Z,23776.00
2022-11-07T11:54:37.050Z,21088.00
2022-11-07T11:55:37.056Z,29600.00
2022-11-07T11:56:37.311Z,26624.00
2022-11-07T11:57:36.965Z,71456.00
2022-11-07T11:58:36.983Z,43808.00
2022-11-07T11:59:36.958Z,63648.00
2022-11-07T12:00:36.927Z,46176.00
2022-11-07T12:01:36.938Z,41856.00
2022-11-07T12:02:36.989Z,52736.00
2022-11-07T12:03:36.909Z,60960.00
2022-11-07T12:04:36.931Z,36544.00
2022-11-07T12:05:36.889Z,62720.00
2022-11-07T12:06:36.859Z,59776.00
2022-11-07T12:07:37.169Z,57056.00
2022-11-07T12:08:36.841Z,34368.00
2022-11-07T12:09:36.830Z,58336.00
2022-11-07T12:10:36.862Z,65728.00
2022-11-07T12:11:36.885Z,68576.00
2022-11-07T12:12:36.823Z,67840.00
2022-11-07T12:13:36.783Z,65152.00
2022-11-07T12:14:36.813Z,61952.00
2022-11-07T12:15:36.776Z,56416.00
2022-11-07T12:16:36.759Z,57632.00
2022-11-07T12:17:36.755Z,51968.00
2022-11-07T12:18:36.745Z,47040.00
2022-11-07T12:19:36.725Z,49632.00
2022-11-07T12:20:36.723Z,49184.00
2022-11-07T12:21:36.716Z,48928.00
2022-11-07T12:22:36.695Z,50720.00
2022-11-07T12:23:36.697Z,47232.00
2022-11-07T12:24:36.674Z,45280.00
2022-11-07T12:25:36.657Z,30016.00
2022-11-07T12:26:36.730Z,30112.00
2022-11-07T12:27:36.725Z,47616.00
2022-11-07T12:28:36.629Z,45792.00
2022-11-07T12:29:36.640Z,49760.00
2022-11-07T12:30:36.611Z,50016.00
2022-11-07T12:31:36.610Z,40928.00
2022-11-07T12:32:36.612Z,41824.00
2022-11-07T12:33:36.581Z,42720.00
2022-11-07T12:34:36.590Z,44800.00
2022-11-07T12:35:36.582Z,45696.00